Terminal Aerodrome Forecast
Issued by NWS Austin/San Antonio, TX

Home | Current Version | Previous Version | Text Only | Print | Product List | Glossary On
Versions: 1 2 3 4 5 6 7 8 9 10 11 12 13 14 15 16 17 18 19
039
FTUS44 KEWX 200522
TAFAUS
TAF
KAUS 200522Z 2006/2112 18009KT P6SM BKN250
     FM200800 18007KT P6SM BKN012
      TEMPO 2010/2014 BKN007
     FM201500 19012KT P6SM BKN025
     FM201700 18012KT P6SM SCT040
     FM210800 18006KT P6SM BKN012=

USA.gov is the U.S. government's official web portal to all federal, state and local government web resources and services.